createdAt,value
2019-02-20T00:00:04.945Z,67.02
2019-02-20T00:02:33.599Z,67.24
2019-02-20T00:05:00.578Z,67.24
2019-02-20T00:07:27.535Z,66.91
2019-02-20T00:09:54.494Z,67.24
2019-02-20T00:12:21.415Z,67.75
2019-02-20T00:14:48.380Z,67.84
2019-02-20T00:17:15.330Z,68.13
2019-02-20T00:19:42.212Z,68.03
2019-02-20T00:22:09.056Z,68.38
2019-02-20T00:24:35.927Z,68.96
2019-02-20T00:27:02.710Z,69.29
2019-02-20T00:29:29.585Z,68.88
2019-02-20T00:31:56.453Z,69.39
2019-02-20T00:34:23.211Z,69.66
2019-02-20T00:36:50.220Z,69.10
2019-02-20T00:39:18.188Z,68.74
2019-02-20T00:41:45.170Z,69.48
2019-02-20T00:44:40.533Z,69.82
2019-02-20T00:47:19.935Z,69.46
2019-02-20T00:49:48.739Z,69.80
2019-02-20T00:52:49.638Z,69.27
2019-02-20T00:55:10.078Z,69.00
2019-02-20T00:57:36.929Z,69.13
2019-02-20T01:00:04.475Z,68.86
2019-02-20T01:02:31.610Z,68.96
2019-02-20T01:04:58.453Z,69.56
2019-02-20T01:07:26.547Z,69.11
2019-02-20T01:09:53.369Z,69.03
2019-02-20T01:12:20.528Z,68.75
2019-02-20T01:14:47.304Z,68.50
2019-02-20T01:17:14.142Z,68.25
2019-02-20T01:19:40.907Z,68.18
2019-02-20T01:22:07.643Z,68.61
2019-02-20T01:24:34.397Z,68.73
2019-02-20T01:27:01.240Z,68.48
2019-02-20T01:29:28.131Z,68.55
2019-02-20T01:31:54.912Z,68.56
2019-02-20T01:34:21.863Z,68.59
2019-02-20T01:36:48.620Z,68.26
2019-02-20T01:39:15.547Z,68.75
2019-02-20T01:41:43.581Z,69.00
2019-02-20T01:44:10.379Z,68.65
2019-02-20T01:46:37.135Z,68.46
2019-02-20T01:49:03.884Z,68.59
2019-02-20T01:51:31.079Z,68.34
2019-02-20T01:53:58.115Z,68.36
2019-02-20T01:56:24.866Z,68.47
2019-02-20T01:58:51.740Z,68.53
2019-02-20T02:01:18.591Z,68.72
2019-02-20T02:03:45.469Z,68.61
2019-02-20T02:06:12.320Z,68.21
2019-02-20T02:08:39.173Z,68.33
2019-02-20T02:11:05.910Z,67.84
2019-02-20T02:13:32.659Z,67.97
2019-02-20T02:15:59.398Z,68.37
2019-02-20T02:18:27.335Z,68.64
2019-02-20T02:20:54.216Z,68.93
2019-02-20T02:23:21.021Z,69.02
2019-02-20T02:25:47.986Z,69.34
2019-02-20T02:28:16.111Z,69.38
2019-02-20T02:30:42.859Z,69.36
2019-02-20T02:33:09.610Z,69.16
2019-02-20T02:35:36.587Z,69.19
2019-02-20T02:38:03.329Z,69.32
2019-02-20T02:40:30.092Z,69.45
2019-02-20T02:42:56.842Z,69.21
2019-02-20T02:45:23.733Z,68.95
2019-02-20T02:47:50.560Z,69.33
2019-02-20T02:50:17.472Z,69.23
2019-02-20T02:52:44.318Z,69.07
2019-02-20T02:55:11.163Z,68.81
2019-02-20T02:57:38.122Z,68.97
2019-02-20T03:00:05.227Z,69.13
2019-02-20T03:02:33.886Z,69.17
2019-02-20T03:05:00.764Z,69.12
2019-02-20T03:07:28.090Z,69.46
2019-02-20T03:09:54.825Z,69.71
2019-02-20T03:12:21.575Z,69.71
2019-02-20T03:14:48.762Z,69.51
2019-02-20T03:17:15.734Z,69.68
2019-02-20T03:19:42.482Z,69.85
2019-02-20T03:22:09.223Z,69.56
2019-02-20T03:24:35.960Z,69.38
2019-02-20T03:27:02.751Z,69.19
2019-02-20T03:29:29.809Z,69.36
2019-02-20T03:31:56.649Z,69.28
2019-02-20T03:34:23.628Z,69.20
2019-02-20T03:36:50.377Z,68.71
2019-02-20T03:39:17.274Z,68.83
2019-02-20T03:41:44.043Z,68.95
2019-02-20T03:44:11.090Z,69.13
2019-02-20T03:46:37.837Z,68.84
2019-02-20T03:49:05.813Z,69.04
2019-02-20T03:51:32.537Z,69.10
2019-02-20T03:53:59.408Z,69.04
2019-02-20T03:56:26.266Z,69.32
2019-02-20T03:58:53.139Z,70.29
2019-02-20T04:01:19.963Z,70.90
2019-02-20T04:03:46.849Z,71.37
2019-02-20T04:06:13.595Z,71.74
2019-02-20T04:08:41.630Z,72.04
2019-02-20T04:11:08.636Z,72.28
2019-02-20T04:13:35.384Z,72.75
2019-02-20T04:16:02.136Z,73.33
2019-02-20T04:18:29.016Z,73.82
2019-02-20T04:20:55.938Z,73.73
2019-02-20T04:23:22.809Z,73.29
2019-02-20T04:25:49.662Z,72.74
2019-02-20T04:28:16.419Z,72.24
2019-02-20T04:30:43.377Z,72.29
2019-02-20T04:33:10.156Z,72.33
2019-02-20T04:35:37.100Z,72.36
2019-02-20T04:38:03.938Z,72.41
2019-02-20T04:40:30.823Z,72.34
2019-02-20T04:42:58.509Z,72.65
2019-02-20T04:45:25.426Z,72.97
2019-02-20T04:47:52.181Z,72.80
2019-02-20T04:50:19.011Z,72.70
2019-02-20T04:52:45.942Z,72.45
2019-02-20T04:55:12.745Z,72.52
2019-02-20T04:57:39.606Z,72.94
2019-02-20T05:00:10.057Z,73.21
2019-02-20T05:02:36.916Z,73.29
2019-02-20T05:05:03.675Z,72.79
2019-02-20T05:07:30.636Z,71.91
2019-02-20T05:09:57.514Z,72.12
2019-02-20T05:12:24.245Z,72.60
2019-02-20T05:14:51.019Z,72.65
2019-02-20T05:17:17.784Z,72.67
2019-02-20T05:19:44.879Z,72.61
2019-02-20T05:22:11.733Z,72.19
2019-02-20T05:24:38.565Z,71.65
2019-02-20T05:27:05.286Z,71.24
2019-02-20T05:29:32.237Z,70.71
2019-02-20T05:32:00.800Z,70.29
2019-02-20T05:34:27.616Z,69.90
2019-02-20T05:36:54.637Z,69.48
2019-02-20T05:39:21.609Z,69.22
2019-02-20T05:41:48.451Z,69.02
2019-02-20T05:44:15.258Z,68.79
2019-02-20T05:46:42.179Z,68.81
2019-02-20T05:49:08.931Z,68.47
2019-02-20T05:51:35.792Z,68.79
2019-02-20T05:54:02.590Z,68.79
2019-02-20T05:56:29.548Z,68.91
2019-02-20T05:59:14.715Z,69.00
2019-02-20T06:02:08.584Z,68.65
2019-02-20T06:04:36.498Z,68.64
2019-02-20T06:07:03.298Z,68.80
2019-02-20T06:09:30.356Z,69.17
2019-02-20T06:11:57.109Z,70.97
2019-02-20T06:14:23.995Z,72.50
2019-02-20T06:16:50.783Z,73.55
2019-02-20T06:19:17.519Z,73.59
2019-02-20T06:21:44.341Z,73.48
2019-02-20T06:24:11.085Z,73.24
2019-02-20T06:26:37.823Z,72.96
2019-02-20T06:29:04.824Z,72.58
2019-02-20T06:31:31.776Z,72.25
2019-02-20T06:33:58.525Z,71.90
2019-02-20T06:36:25.392Z,71.53
2019-02-20T06:38:52.254Z,71.27
2019-02-20T06:41:19.233Z,70.56
2019-02-20T06:43:48.117Z,70.34
2019-02-20T06:46:14.967Z,70.17
2019-02-20T06:48:41.965Z,70.12
2019-02-20T06:51:08.758Z,69.75
2019-02-20T06:53:35.699Z,69.54
2019-02-20T06:56:02.548Z,69.22
2019-02-20T06:58:29.325Z,69.03
2019-02-20T07:00:56.086Z,68.58
2019-02-20T07:03:23.255Z,68.25
2019-02-20T07:05:56.497Z,67.99
2019-02-20T07:09:04.761Z,67.87
2019-02-20T07:12:24.804Z,68.48
2019-02-20T07:15:39.627Z,68.15
2019-02-20T07:19:03.821Z,67.19
2019-02-20T07:22:03.328Z,66.55
2019-02-20T07:25:02.660Z,67.11
2019-02-20T07:28:02.165Z,68.83
2019-02-20T07:30:29.141Z,70.19
2019-02-20T07:32:55.991Z,71.21
2019-02-20T07:35:22.951Z,71.93
2019-02-20T07:37:49.942Z,71.95
2019-02-20T07:40:16.895Z,72.36
2019-02-20T07:42:43.871Z,71.83
2019-02-20T07:45:13.451Z,71.37
2019-02-20T07:47:40.402Z,70.14
2019-02-20T07:50:08.944Z,68.92
2019-02-20T07:52:36.227Z,68.03
2019-02-20T07:55:12.666Z,67.96
2019-02-20T07:57:31.860Z,67.63
2019-02-20T07:59:58.854Z,67.53
2019-02-20T08:02:25.703Z,66.22
2019-02-20T08:04:52.581Z,65.54
2019-02-20T08:07:19.474Z,66.24
2019-02-20T08:09:46.320Z,67.72
2019-02-20T08:12:13.069Z,68.87
2019-02-20T08:14:39.964Z,69.19
2019-02-20T08:17:06.826Z,69.76
2019-02-20T08:19:34.881Z,70.36
2019-02-20T08:22:01.697Z,68.12
2019-02-20T08:24:29.798Z,63.77
2019-02-20T08:26:56.780Z,60.49
2019-02-20T08:29:23.696Z,57.92
2019-02-20T08:31:50.549Z,57.00
2019-02-20T08:34:17.394Z,55.44
2019-02-20T08:36:44.379Z,54.23
2019-02-20T08:39:11.325Z,53.88
2019-02-20T08:41:38.354Z,54.55
2019-02-20T08:44:05.177Z,55.08
2019-02-20T08:46:31.916Z,54.21
2019-02-20T08:48:58.658Z,54.33
2019-02-20T08:51:25.461Z,53.29
2019-02-20T08:53:52.308Z,54.71
2019-02-20T08:56:19.093Z,55.78
2019-02-20T08:58:46.050Z,56.63
2019-02-20T09:01:12.821Z,55.44
2019-02-20T09:03:39.575Z,55.68
2019-02-20T09:06:06.354Z,54.84
2019-02-20T09:09:58.598Z,54.87
2019-02-20T09:12:54.393Z,55.03
2019-02-20T09:15:24.782Z,50.75
2019-02-20T09:17:51.630Z,50.29
2019-02-20T09:20:18.476Z,50.30
2019-02-20T09:22:45.339Z,50.25
2019-02-20T09:25:19.445Z,49.09
2019-02-20T09:27:40.936Z,48.45
2019-02-20T09:30:10.907Z,48.34
2019-02-20T09:32:37.783Z,48.95
2019-02-20T09:35:05.484Z,46.85
2019-02-20T09:37:32.423Z,46.51
2019-02-20T09:39:59.170Z,44.58
2019-02-20T09:42:26.599Z,44.08
2019-02-20T09:44:53.345Z,43.47
2019-02-20T09:47:20.098Z,45.49
2019-02-20T09:52:13.520Z,42.03
2019-02-20T09:54:40.394Z,40.85
2019-02-20T09:57:07.350Z,39.87
2019-02-20T09:59:34.335Z,39.21
2019-02-20T10:02:01.393Z,37.57
2019-02-20T10:04:29.024Z,37.84
2019-02-20T10:06:55.778Z,39.53
2019-02-20T10:09:22.644Z,42.12
2019-02-20T10:11:49.832Z,43.24
2019-02-20T10:14:16.819Z,42.01
2019-02-20T10:16:44.873Z,40.55
2019-02-20T10:19:11.833Z,37.99
2019-02-20T10:21:38.835Z,36.84
2019-02-20T10:24:05.590Z,35.51
2019-02-20T10:26:33.437Z,33.46
2019-02-20T10:29:01.631Z,34.39
2019-02-20T10:31:28.532Z,33.89
2019-02-20T10:33:55.492Z,33.11
2019-02-20T10:36:22.328Z,29.32
2019-02-20T10:38:49.143Z,35.74
2019-02-20T10:41:16.038Z,38.18
2019-02-20T10:43:42.793Z,33.67
2019-02-20T10:46:09.668Z,31.69
2019-02-20T10:48:36.545Z,32.36
2019-02-20T10:51:03.300Z,32.21
2019-02-20T10:53:31.472Z,30.97
2019-02-20T10:55:58.319Z,30.88
2019-02-20T10:58:25.364Z,28.88
2019-02-20T11:00:53.218Z,28.21
2019-02-20T11:03:20.074Z,27.32
2019-02-20T11:05:46.880Z,27.14
2019-02-20T11:08:13.725Z,25.55
2019-02-20T11:10:40.583Z,25.41
2019-02-20T11:13:07.557Z,25.19
2019-02-20T11:15:34.414Z,26.37
2019-02-20T11:18:01.188Z,24.60
2019-02-20T11:20:28.169Z,24.14
2019-02-20T11:22:55.026Z,26.15
2019-02-20T11:25:21.766Z,27.59
2019-02-20T11:27:48.743Z,26.81
2019-02-20T11:30:24.959Z,28.28
2019-02-20T11:32:56.623Z,28.16
2019-02-20T11:35:23.348Z,28.25
2019-02-20T11:37:50.111Z,29.00
2019-02-20T11:40:16.892Z,30.15
2019-02-20T11:42:43.851Z,30.59
2019-02-20T11:45:10.952Z,30.31
2019-02-20T11:47:39.816Z,28.75
2019-02-20T11:50:08.150Z,25.02
2019-02-20T11:52:38.310Z,23.98
2019-02-20T11:55:05.507Z,24.65
2019-02-20T11:57:32.567Z,25.70
2019-02-20T11:59:59.325Z,26.97
2019-02-20T12:02:27.349Z,24.84
2019-02-20T12:04:54.158Z,24.01
2019-02-20T12:07:21.089Z,25.63
2019-02-20T12:09:48.081Z,25.68
2019-02-20T12:12:17.922Z,22.24
2019-02-20T12:14:44.751Z,26.39
2019-02-20T12:17:11.509Z,29.24
2019-02-20T12:19:39.419Z,29.73
2019-02-20T12:22:06.306Z,28.28
2019-02-20T12:24:33.220Z,25.17
2019-02-20T12:26:59.968Z,24.02
2019-02-20T12:29:26.932Z,24.62
2019-02-20T12:34:33.739Z,35.90
2019-02-20T12:37:00.526Z,37.95
2019-02-20T12:39:27.815Z,34.88
2019-02-20T12:41:54.766Z,34.78
2019-02-20T12:44:24.849Z,33.98
2019-02-20T12:46:52.249Z,32.32
2019-02-20T12:49:19.232Z,32.60
2019-02-20T12:51:47.187Z,36.95
2019-02-20T12:54:14.049Z,35.66
2019-02-20T12:56:43.987Z,33.58
2019-02-20T12:59:09.886Z,35.28
2019-02-20T13:01:40.872Z,38.04
2019-02-20T13:04:07.812Z,41.00
2019-02-20T13:06:34.715Z,37.59
2019-02-20T13:09:01.532Z,34.12
2019-02-20T13:11:34.304Z,33.54
2019-02-20T13:14:01.591Z,30.32
2019-02-20T13:16:28.969Z,29.12
2019-02-20T13:18:55.850Z,27.11
2019-02-20T13:21:22.642Z,25.42
2019-02-20T13:23:49.895Z,26.03
2019-02-20T13:26:16.653Z,25.62
2019-02-20T13:28:43.417Z,26.97
2019-02-20T13:31:10.387Z,27.18
2019-02-20T13:33:37.366Z,23.93
2019-02-20T13:36:04.257Z,30.30
2019-02-20T13:38:31.271Z,36.33
2019-02-20T13:40:58.240Z,33.75
2019-02-20T13:43:25.595Z,33.08
2019-02-20T13:45:52.449Z,36.91
2019-02-20T13:48:19.206Z,36.77
2019-02-20T13:50:46.992Z,35.56
2019-02-20T13:53:14.338Z,31.62
2019-02-20T13:55:41.412Z,28.54
2019-02-20T13:58:08.478Z,26.59
2019-02-20T14:00:35.382Z,27.76
2019-02-20T14:03:02.886Z,29.32
2019-02-20T14:05:30.099Z,30.21
2019-02-20T14:08:00.681Z,30.27
2019-02-20T14:10:27.685Z,29.81
2019-02-20T14:12:54.456Z,30.59
2019-02-20T14:15:21.338Z,30.11
2019-02-20T14:17:48.225Z,31.54
2019-02-20T14:20:15.132Z,29.75
2019-02-20T14:22:42.078Z,29.53
2019-02-20T14:25:08.886Z,29.01
2019-02-20T14:27:35.647Z,29.60
2019-02-20T14:30:03.074Z,31.72
2019-02-20T14:32:31.799Z,32.12
2019-02-20T14:34:58.600Z,32.82
2019-02-20T14:37:25.342Z,33.65
2019-02-20T14:39:52.820Z,33.55
2019-02-20T14:42:19.762Z,34.38
2019-02-20T14:44:46.545Z,36.90
2019-02-20T14:47:13.338Z,35.68
2019-02-20T14:49:41.878Z,37.23
2019-02-20T14:52:18.630Z,38.71
2019-02-20T14:54:45.796Z,38.12
2019-02-20T14:57:19.360Z,37.07
2019-02-20T14:59:41.806Z,36.67
2019-02-20T15:02:09.508Z,36.82
2019-02-20T15:04:54.196Z,35.84
2019-02-20T15:07:27.018Z,36.32
2019-02-20T15:09:55.667Z,36.56
2019-02-20T15:12:22.980Z,34.68
2019-02-20T15:14:49.991Z,31.65
2019-02-20T15:17:16.879Z,29.06
2019-02-20T15:19:43.726Z,29.14
2019-02-20T15:22:10.565Z,30.49
2019-02-20T15:24:38.569Z,31.71
2019-02-20T15:27:06.353Z,31.92
2019-02-20T15:29:33.167Z,32.07
2019-02-20T15:32:00.047Z,32.91
2019-02-20T15:34:26.891Z,33.72
2019-02-20T15:36:53.654Z,36.38
2019-02-20T15:39:20.547Z,36.19
2019-02-20T15:41:47.283Z,35.67
2019-02-20T15:44:14.036Z,35.87
2019-02-20T15:46:41.040Z,36.22
2019-02-20T15:49:07.770Z,36.13
2019-02-20T15:51:34.620Z,35.89
2019-02-20T15:54:01.624Z,36.93
2019-02-20T15:56:30.684Z,37.52
2019-02-20T15:58:57.540Z,38.00
2019-02-20T16:01:26.134Z,38.74
2019-02-20T16:03:52.866Z,38.47
2019-02-20T16:06:19.914Z,37.27
2019-02-20T16:08:46.790Z,37.03
2019-02-20T16:11:13.523Z,37.28
2019-02-20T16:13:41.453Z,37.69
2019-02-20T16:16:08.462Z,38.39
2019-02-20T16:18:35.346Z,39.44
2019-02-20T16:21:02.252Z,39.95
2019-02-20T16:23:31.124Z,40.34
2019-02-20T16:26:02.274Z,40.88
2019-02-20T16:28:33.836Z,40.93
2019-02-20T16:30:58.082Z,41.60
2019-02-20T16:33:24.842Z,41.74
2019-02-20T16:35:53.381Z,41.17
2019-02-20T16:38:20.399Z,41.69
2019-02-20T16:40:49.664Z,41.88
2019-02-20T16:43:16.809Z,42.95
2019-02-20T16:45:43.701Z,43.19
2019-02-20T16:48:10.463Z,42.88
2019-02-20T16:50:37.290Z,43.44
2019-02-20T16:53:07.889Z,44.26
2019-02-20T16:55:34.663Z,44.33
2019-02-20T16:58:01.410Z,44.48
2019-02-20T17:00:28.686Z,45.00
2019-02-20T17:02:55.442Z,45.00
2019-02-20T17:05:22.317Z,45.92
2019-02-20T17:07:49.282Z,45.86
2019-02-20T17:10:16.377Z,45.91
2019-02-20T17:12:43.324Z,46.79
2019-02-20T17:15:10.605Z,47.23
2019-02-20T17:17:37.459Z,47.99
2019-02-20T17:20:05.834Z,47.56
2019-02-20T17:22:32.767Z,47.02
2019-02-20T17:24:59.512Z,47.19
2019-02-20T17:27:27.414Z,47.75
2019-02-20T17:29:54.197Z,48.26
2019-02-20T17:32:21.228Z,47.24
2019-02-20T17:34:47.970Z,47.26
2019-02-20T17:37:14.856Z,47.44
2019-02-20T17:39:43.296Z,47.82
2019-02-20T17:42:10.274Z,47.92
2019-02-20T17:44:37.030Z,48.33
2019-02-20T17:47:04.096Z,48.77
2019-02-20T17:49:31.140Z,49.07
2019-02-20T17:51:57.892Z,49.20
2019-02-20T17:54:24.772Z,49.38
2019-02-20T17:56:51.934Z,50.13
2019-02-20T17:59:18.854Z,50.47
2019-02-20T18:01:46.040Z,50.41
2019-02-20T18:04:12.786Z,50.12
2019-02-20T18:06:39.716Z,49.92
2019-02-20T18:09:06.711Z,50.31
2019-02-20T18:11:36.873Z,50.30
2019-02-20T18:14:03.724Z,50.40
2019-02-20T18:16:30.892Z,50.88
2019-02-20T18:18:59.757Z,50.71
2019-02-20T18:21:26.530Z,50.16
2019-02-20T18:23:53.391Z,50.00
2019-02-20T18:26:20.309Z,49.72
2019-02-20T18:28:47.191Z,49.83
2019-02-20T18:31:14.035Z,49.51
2019-02-20T18:33:41.014Z,49.49
2019-02-20T18:36:07.795Z,49.34
2019-02-20T18:38:34.510Z,49.02
2019-02-20T18:41:01.252Z,48.89
2019-02-20T18:43:28.008Z,48.85
2019-02-20T18:45:55.064Z,49.06
2019-02-20T18:48:21.863Z,48.84
2019-02-20T18:50:48.885Z,48.96
2019-02-20T18:53:15.721Z,49.24
2019-02-20T18:55:43.781Z,49.65
2019-02-20T18:58:10.905Z,50.41
2019-02-20T19:00:39.440Z,50.53
2019-02-20T19:03:06.415Z,51.45
2019-02-20T19:05:33.840Z,51.89
2019-02-20T19:08:22.537Z,52.47
2019-02-20T19:10:55.582Z,52.31
2019-02-20T19:13:57.357Z,53.61
2019-02-20T19:16:52.229Z,54.75
2019-02-20T19:19:36.174Z,55.46
2019-02-20T19:22:48.463Z,55.36
2019-02-20T19:25:57.049Z,55.07
2019-02-20T19:28:55.152Z,55.27
2019-02-20T19:32:18.148Z,56.54
2019-02-20T19:34:53.296Z,56.10
2019-02-20T19:37:33.344Z,56.37
2019-02-20T19:40:57.196Z,55.98
2019-02-20T19:44:03.227Z,56.87
2019-02-20T19:47:22.484Z,57.60
2019-02-20T19:50:20.625Z,56.99
2019-02-20T19:53:19.958Z,57.10
2019-02-20T19:56:44.232Z,57.48
2019-02-20T20:00:08.147Z,57.42
2019-02-20T20:03:13.351Z,57.53
2019-02-20T20:06:19.185Z,57.88
2019-02-20T20:09:29.269Z,57.28
2019-02-20T20:12:35.272Z,58.25
2019-02-20T20:15:25.511Z,59.15
2019-02-20T20:18:22.307Z,59.45
2019-02-20T20:21:27.642Z,59.45
2019-02-20T20:24:44.779Z,59.62
2019-02-20T20:27:26.878Z,59.72
2019-02-20T20:30:34.168Z,59.70
2019-02-20T20:33:35.589Z,60.10
2019-02-20T20:36:44.717Z,60.11
2019-02-20T20:39:50.996Z,60.52
2019-02-20T20:42:55.826Z,60.29
2019-02-20T20:45:42.303Z,60.02
2019-02-20T20:48:32.549Z,60.16
2019-02-20T20:51:44.447Z,59.87
2019-02-20T20:54:49.514Z,60.20
2019-02-20T20:57:34.708Z,60.27
2019-02-20T21:00:40.490Z,59.80
2019-02-20T21:03:10.579Z,59.54
2019-02-20T21:06:01.083Z,60.32
2019-02-20T21:09:21.886Z,61.13
2019-02-20T21:12:44.930Z,61.14
2019-02-20T21:15:44.902Z,60.85
2019-02-20T21:18:35.156Z,60.18
2019-02-20T21:21:19.011Z,60.47
2019-02-20T21:24:23.686Z,60.34
2019-02-20T21:27:29.211Z,60.44
2019-02-20T21:30:36.978Z,61.31
2019-02-20T21:33:48.875Z,60.58
2019-02-20T21:37:00.939Z,60.82
2019-02-20T21:39:47.713Z,60.75
2019-02-20T21:42:52.744Z,61.31
2019-02-20T21:45:59.405Z,61.62
2019-02-20T21:48:55.393Z,63.07
2019-02-20T21:52:08.086Z,63.01
2019-02-20T21:55:09.055Z,62.71
2019-02-20T21:58:15.528Z,62.76
2019-02-20T22:01:21.991Z,62.52
2019-02-20T22:04:17.442Z,62.35
2019-02-20T22:07:16.811Z,62.29
2019-02-20T22:10:01.100Z,62.47
2019-02-20T22:12:54.850Z,62.47
2019-02-20T22:16:02.706Z,62.43
2019-02-20T22:19:01.708Z,62.44
2019-02-20T22:22:07.994Z,63.02
2019-02-20T22:25:22.871Z,63.37
2019-02-20T22:28:26.484Z,64.33
2019-02-20T22:31:41.404Z,64.02
2019-02-20T22:34:46.156Z,64.11
2019-02-20T22:37:51.924Z,63.66
2019-02-20T22:40:49.006Z,64.16
2019-02-20T22:43:41.771Z,63.51
2019-02-20T22:46:16.864Z,63.48
2019-02-20T22:49:31.607Z,63.98
2019-02-20T22:52:53.699Z,62.91
2019-02-20T22:55:36.367Z,62.46
2019-02-20T22:58:19.782Z,62.10
2019-02-20T23:01:34.210Z,61.87
2019-02-20T23:04:24.199Z,61.94
2019-02-20T23:07:05.771Z,62.06
2019-02-20T23:09:42.592Z,61.76
2019-02-20T23:12:30.970Z,62.20
2019-02-20T23:14:57.941Z,62.95
2019-02-20T23:17:27.126Z,64.02
2019-02-20T23:19:54.258Z,64.79
2019-02-20T23:22:21.010Z,64.83
2019-02-20T23:24:49.133Z,63.82
2019-02-20T23:27:16.378Z,63.63
2019-02-20T23:29:43.921Z,64.28
2019-02-20T23:32:10.772Z,64.33
2019-02-20T23:34:37.666Z,64.16
2019-02-20T23:37:04.702Z,64.06
2019-02-20T23:39:31.445Z,64.18
2019-02-20T23:41:58.411Z,63.80
2019-02-20T23:44:25.142Z,63.63
2019-02-20T23:46:51.992Z,63.50
2019-02-20T23:49:18.875Z,63.89
2019-02-20T23:51:45.722Z,63.80
2019-02-20T23:54:12.486Z,63.48
2019-02-20T23:56:39.401Z,63.46
2019-02-20T23:59:06.168Z,63.07
